sensor_id;sensor_type;location;lat;lon;timestamp;pressure;altitude;pressure_sealevel;temperature;humidity
26839;BME280;40088;51.214;6.786;2023-04-26T00:00:43;101589.06;;;18.32;46.18
26839;BME280;40088;51.214;6.786;2023-04-26T00:10:44;101592.03;;;18.30;46.42
26839;BME280;40088;51.214;6.786;2023-04-26T00:20:45;101599.25;;;18.31;46.25
26839;BME280;40088;51.214;6.786;2023-04-26T00:30:45;101588.22;;;18.31;46.29
26839;BME280;40088;51.214;6.786;2023-04-26T00:40:47;101578.22;;;18.30;46.37
26839;BME280;40088;51.214;6.786;2023-04-26T00:50:48;101577.34;;;18.30;46.57
26839;BME280;40088;51.214;6.786;2023-04-26T01:00:48;101575.47;;;18.30;46.35
26839;BME280;40088;51.214;6.786;2023-04-26T01:10:50;101570.97;;;18.29;46.72
26839;BME280;40088;51.214;6.786;2023-04-26T01:20:52;101589.28;;;18.30;46.37
26839;BME280;40088;51.214;6.786;2023-04-26T01:30:52;101588.38;;;18.30;46.48
26839;BME280;40088;51.214;6.786;2023-04-26T01:40:52;101596.66;;;18.30;46.42
26839;BME280;40088;51.214;6.786;2023-04-26T01:50:52;101587.38;;;18.31;46.47
26839;BME280;40088;51.214;6.786;2023-04-26T02:00:53;101581.00;;;18.30;46.44
26839;BME280;40088;51.214;6.786;2023-04-26T02:10:53;101584.59;;;18.31;46.55
26839;BME280;40088;51.214;6.786;2023-04-26T02:20:53;101584.78;;;18.29;46.48
26839;BME280;40088;51.214;6.786;2023-04-26T02:30:53;101586.50;;;18.30;46.56
26839;BME280;40088;51.214;6.786;2023-04-26T02:40:59;101588.56;;;18.28;46.61
26839;BME280;40088;51.214;6.786;2023-04-26T02:51:00;101580.09;;;18.30;46.57
26839;BME280;40088;51.214;6.786;2023-04-26T03:01:00;101572.03;;;18.28;46.59
26839;BME280;40088;51.214;6.786;2023-04-26T03:11:01;101571.16;;;18.28;46.63
26839;BME280;40088;51.214;6.786;2023-04-26T03:21:01;101567.34;;;18.29;46.64
26839;BME280;40088;51.214;6.786;2023-04-26T03:31:02;101560.13;;;18.28;46.87
26839;BME280;40088;51.214;6.786;2023-04-26T03:41:03;101555.47;;;18.28;46.81
26839;BME280;40088;51.214;6.786;2023-04-26T03:51:03;101553.56;;;18.29;46.87
26839;BME280;40088;51.214;6.786;2023-04-26T04:01:03;101557.38;;;18.28;46.93
26839;BME280;40088;51.214;6.786;2023-04-26T04:11:04;101564.59;;;18.29;46.89
26839;BME280;40088;51.214;6.786;2023-04-26T04:21:04;101564.59;;;18.29;46.87
26839;BME280;40088;51.214;6.786;2023-04-26T04:31:04;101575.63;;;18.29;47.19
26839;BME280;40088;51.214;6.786;2023-04-26T04:41:05;101578.41;;;18.29;46.94
26839;BME280;40088;51.214;6.786;2023-04-26T04:51:07;101588.38;;;18.30;46.92
26839;BME280;40088;51.214;6.786;2023-04-26T05:01:07;101588.38;;;18.30;46.98
26839;BME280;40088;51.214;6.786;2023-04-26T05:11:08;101603.22;;;18.29;46.99
26839;BME280;40088;51.214;6.786;2023-04-26T05:21:09;101611.16;;;18.32;46.91
26839;BME280;40088;51.214;6.786;2023-04-26T05:31:10;101618.38;;;18.33;46.89
26839;BME280;40088;51.214;6.786;2023-04-26T05:41:11;101624.94;;;18.32;46.77
26839;BME280;40088;51.214;6.786;2023-04-26T05:51:11;101626.66;;;18.33;46.77
26839;BME280;40088;51.214;6.786;2023-04-26T06:01:11;101635.78;;;18.33;46.78
26839;BME280;40088;51.214;6.786;2023-04-26T06:11:12;101646.63;;;18.35;46.52
26839;BME280;40088;51.214;6.786;2023-04-26T06:21:13;101644.91;;;18.34;46.87
26839;BME280;40088;51.214;6.786;2023-04-26T06:31:13;101657.00;;;18.33;46.68
26839;BME280;40088;51.214;6.786;2023-04-26T06:41:13;101653.19;;;18.34;46.42
26839;BME280;40088;51.214;6.786;2023-04-26T06:51:13;101651.28;;;18.34;46.34
26839;BME280;40088;51.214;6.786;2023-04-26T07:01:14;101652.16;;;18.35;46.43
26839;BME280;40088;51.214;6.786;2023-04-26T07:11:14;101658.72;;;18.34;46.35
26839;BME280;40088;51.214;6.786;2023-04-26T07:21:15;101650.28;;;18.35;46.37
26839;BME280;40088;51.214;6.786;2023-04-26T07:31:15;101653.19;;;18.34;46.47
26839;BME280;40088;51.214;6.786;2023-04-26T07:41:15;101663.19;;;18.35;46.42
26839;BME280;40088;51.214;6.786;2023-04-26T07:51:16;101658.38;;;18.37;46.04
26839;BME280;40088;51.214;6.786;2023-04-26T08:01:17;101660.44;;;18.35;46.38
26839;BME280;40088;51.214;6.786;2023-04-26T08:11:17;101657.50;;;18.36;46.21
26839;BME280;40088;51.214;6.786;2023-04-26T08:21:17;101649.22;;;18.36;46.25
26839;BME280;40088;51.214;6.786;2023-04-26T08:31:18;101649.22;;;18.36;46.12
26839;BME280;40088;51.214;6.786;2023-04-26T08:41:21;101660.25;;;18.36;46.15
26839;BME280;40088;51.214;6.786;2023-04-26T08:51:23;101649.03;;;18.38;45.99
26839;BME280;40088;51.214;6.786;2023-04-26T09:01:25;101662.84;;;18.38;46.16
26839;BME280;40088;51.214;6.786;2023-04-26T09:11:27;101662.84;;;18.38;45.95
26839;BME280;40088;51.214;6.786;2023-04-26T09:21:28;101660.06;;;18.38;46.01
26839;BME280;40088;51.214;6.786;2023-04-26T09:31:43;101652.66;;;18.38;45.98
26839;BME280;40088;51.214;6.786;2023-04-26T09:41:44;101638.84;;;18.38;45.86
26839;BME280;40088;51.214;6.786;2023-04-26T09:51:58;101626.97;;;18.38;45.89
26839;BME280;40088;51.214;6.786;2023-04-26T10:02:00;101630.38;;;18.40;45.64
26839;BME280;40088;51.214;6.786;2023-04-26T10:12:01;101622.09;;;18.40;45.72
26839;BME280;40088;51.214;6.786;2023-04-26T10:22:08;101617.47;;;18.40;45.58
26839;BME280;40088;51.214;6.786;2023-04-26T10:32:10;101615.72;;;18.39;45.67
26839;BME280;40088;51.214;6.786;2023-04-26T10:42:23;101624.69;;;18.41;45.49
26839;BME280;40088;51.214;6.786;2023-04-26T10:52:24;101619.53;;;18.38;45.53
26839;BME280;40088;51.214;6.786;2023-04-26T11:02:52;101608.31;;;18.40;45.43
26839;BME280;40088;51.214;6.786;2023-04-26T11:13:01;101605.38;;;18.41;45.23
26839;BME280;40088;51.214;6.786;2023-04-26T11:23:02;101606.44;;;18.40;45.17
26839;BME280;40088;51.214;6.786;2023-04-26T11:33:03;101596.91;;;18.43;45.26
26839;BME280;40088;51.214;6.786;2023-04-26T11:43:04;101585.22;;;18.41;45.48
26839;BME280;40088;51.214;6.786;2023-04-26T11:53:07;101583.13;;;18.43;45.72
26839;BME280;40088;51.214;6.786;2023-04-26T12:03:07;101578.63;;;18.42;45.28
26839;BME280;40088;51.214;6.786;2023-04-26T12:13:12;101581.19;;;18.43;45.19
26839;BME280;40088;51.214;6.786;2023-04-26T12:23:16;101590.53;;;18.42;45.42
26839;BME280;40088;51.214;6.786;2023-04-26T12:33:16;101584.81;;;18.44;45.34
26839;BME280;40088;51.214;6.786;2023-04-26T12:43:21;101574.84;;;18.43;45.42
26839;BME280;40088;51.214;6.786;2023-04-26T12:53:23;101586.22;;;18.40;45.52
26839;BME280;40088;51.214;6.786;2023-04-26T13:03:23;101574.34;;;18.39;45.35
26839;BME280;40088;51.214;6.786;2023-04-26T13:13:23;101576.25;;;18.39;45.36
26839;BME280;40088;51.214;6.786;2023-04-26T13:23:24;101583.47;;;18.40;45.59
26839;BME280;40088;51.214;6.786;2023-04-26T13:33:24;101575.19;;;18.40;45.55
26839;BME280;40088;51.214;6.786;2023-04-26T13:43:25;101564.84;;;18.42;45.33
26839;BME280;40088;51.214;6.786;2023-04-26T13:53:26;101557.63;;;18.41;45.25
26839;BME280;40088;51.214;6.786;2023-04-26T14:03:26;101558.63;;;18.40;45.12
26839;BME280;40088;51.214;6.786;2023-04-26T14:13:26;101551.25;;;18.40;45.12
26839;BME280;40088;51.214;6.786;2023-04-26T14:23:26;101561.41;;;18.40;45.29
26839;BME280;40088;51.214;6.786;2023-04-26T14:33:27;101557.63;;;18.41;45.26
26839;BME280;40088;51.214;6.786;2023-04-26T14:43:27;101544.84;;;18.40;45.15
26839;BME280;40088;51.214;6.786;2023-04-26T14:53:27;101529.34;;;18.39;45.31
26839;BME280;40088;51.214;6.786;2023-04-26T15:03:28;101544.84;;;18.40;44.99
26839;BME280;40088;51.214;6.786;2023-04-26T15:13:28;101527.63;;;18.38;45.28
26839;BME280;40088;51.214;6.786;2023-04-26T15:23:28;101523.66;;;18.40;45.34
26839;BME280;40088;51.214;6.786;2023-04-26T15:33:29;101525.72;;;18.38;45.53
26839;BME280;40088;51.214;6.786;2023-04-26T15:43:29;101521.25;;;18.37;45.51
26839;BME280;40088;51.214;6.786;2023-04-26T15:53:30;101521.59;;;18.34;45.66
26839;BME280;40088;51.214;6.786;2023-04-26T16:03:30;101528.38;;;18.32;45.67
26839;BME280;40088;51.214;6.786;2023-04-26T16:13:30;101532.34;;;18.29;46.08
26839;BME280;40088;51.214;6.786;2023-04-26T16:23:32;101519.78;;;18.27;45.86
26839;BME280;40088;51.214;6.786;2023-04-26T16:33:33;101522.56;;;18.27;45.63
26839;BME280;40088;51.214;6.786;2023-04-26T16:43:33;101510.47;;;18.28;45.84
26839;BME280;40088;51.214;6.786;2023-04-26T16:53:33;101506.50;;;18.30;45.56
26839;BME280;40088;51.214;6.786;2023-04-26T17:03:34;101521.16;;;18.31;45.54
26839;BME280;40088;51.214;6.786;2023-04-26T17:13:35;101527.31;;;18.33;44.93
26839;BME280;40088;51.214;6.786;2023-04-26T17:23:35;101529.88;;;18.34;43.63
26839;BME280;40088;51.214;6.786;2023-04-26T17:33:35;101535.03;;;18.37;43.65
26839;BME280;40088;51.214;6.786;2023-04-26T17:43:36;101528.38;;;18.32;43.92
26839;BME280;40088;51.214;6.786;2023-04-26T17:53:36;101537.31;;;18.34;44.63
26839;BME280;40088;51.214;6.786;2023-04-26T18:03:37;101534.00;;;18.38;43.26
26839;BME280;40088;51.214;6.786;2023-04-26T18:13:38;101545.72;;;18.40;42.93
26839;BME280;40088;51.214;6.786;2023-04-26T18:23:38;101551.03;;;18.42;43.09
26839;BME280;40088;51.214;6.786;2023-04-26T18:33:38;101551.03;;;18.42;43.18
26839;BME280;40088;51.214;6.786;2023-04-26T18:43:39;101558.28;;;18.43;43.29
26839;BME280;40088;51.214;6.786;2023-04-26T18:53:39;101561.69;;;18.45;43.43
26839;BME280;40088;51.214;6.786;2023-04-26T19:03:40;101565.16;;;18.47;43.35
26839;BME280;40088;51.214;6.786;2023-04-26T19:13:41;101567.91;;;18.47;43.58
26839;BME280;40088;51.214;6.786;2023-04-26T19:23:41;101587.03;;;18.48;43.89
26839;BME280;40088;51.214;6.786;2023-04-26T19:33:42;101603.38;;;18.50;43.95
26839;BME280;40088;51.214;6.786;2023-04-26T19:43:43;101601.50;;;18.51;43.92
26839;BME280;40088;51.214;6.786;2023-04-26T19:53:44;101602.19;;;18.53;43.97
26839;BME280;40088;51.214;6.786;2023-04-26T20:03:44;101612.34;;;18.52;44.04
26839;BME280;40088;51.214;6.786;2023-04-26T20:13:45;101621.31;;;18.54;44.21
26839;BME280;40088;51.214;6.786;2023-04-26T20:23:45;101631.28;;;18.55;44.27
26839;BME280;40088;51.214;6.786;2023-04-26T20:33:46;101623.00;;;18.55;44.22
26839;BME280;40088;51.214;6.786;2023-04-26T20:43:46;101627.50;;;18.56;44.32
26839;BME280;40088;51.214;6.786;2023-04-26T20:53:46;101626.47;;;18.57;44.47
26839;BME280;40088;51.214;6.786;2023-04-26T21:03:47;101615.44;;;18.57;44.46
26839;BME280;40088;51.214;6.786;2023-04-26T21:13:47;101624.56;;;18.58;44.60
26839;BME280;40088;51.214;6.786;2023-04-26T21:23:47;101623.50;;;18.59;44.58
26839;BME280;40088;51.214;6.786;2023-04-26T21:33:48;101631.59;;;18.60;44.64
26839;BME280;40088;51.214;6.786;2023-04-26T21:43:48;101628.84;;;18.60;44.75
26839;BME280;40088;51.214;6.786;2023-04-26T21:53:49;101628.66;;;18.62;44.97
26839;BME280;40088;51.214;6.786;2023-04-26T22:03:49;101633.34;;;18.61;44.67
26839;BME280;40088;51.214;6.786;2023-04-26T22:13:50;101642.47;;;18.62;44.51
26839;BME280;40088;51.214;6.786;2023-04-26T22:23:50;101640.75;;;18.61;44.78
26839;BME280;40088;51.214;6.786;2023-04-26T22:33:50;101642.63;;;18.60;44.53
26839;BME280;40088;51.214;6.786;2023-04-26T22:43:52;101649.91;;;18.61;44.78
26839;BME280;40088;51.214;6.786;2023-04-26T22:53:52;101651.81;;;18.61;44.43
26839;BME280;40088;51.214;6.786;2023-04-26T23:03:53;101650.91;;;18.60;44.60
26839;BME280;40088;51.214;6.786;2023-04-26T23:13:53;101659.03;;;18.62;44.68
26839;BME280;40088;51.214;6.786;2023-04-26T23:23:53;101660.25;;;18.59;44.63
26839;BME280;40088;51.214;6.786;2023-04-26T23:33:54;101671.13;;;18.61;44.62
26839;BME280;40088;51.214;6.786;2023-04-26T23:43:54;101666.63;;;18.60;44.77
26839;BME280;40088;51.214;6.786;2023-04-26T23:53:55;101674.91;;;18.60;44.89
